Accueil
METAR-TAF:

METAR-TAF

Aéroports :

Aéroport international de Chongqing-Jiangbei

Chongqing, Chine

latitude: 29-31N, longitude: 106-29E, altitude: 351 m

Observation

Le bulletin a été fait il y a 47 minutes, à 07:00 UTC
Vent 4 kt de est/sud-est, variant entre est et sud/sud-est
Température 26°C
Humidité 58%
Pression 1008 hPa
Visibilité 10 km ou plus
Nuages épars à une hauteur de 3000 ft
Nuages fragmentés à une hauteur de 4600 ft

METAR: ZUCK 030700Z 11002MPS 080V150 9999 SCT030 BKN046 26/17 Q1008 NOSIG

Heure: 15:47 (07:47 UTC)

Prévision

Le bulletin a été fait il y a 4 heures et 45 minutes, à 03:02 UTC
Prévision valable du 03 à 06 UTC au 04 à 06 UTC
Vent 6 kt de est
Visibilité: 6000 m
Nuages épars à une hauteur de 3000 ft

TAF: ZUCK 030302Z 0306/0406 10003MPS 6000 SCT030 TX29/0406Z TN18/0322Z

Observations et prévisions météorologiques de plus de 4000 aéroports (messages METAR et TAF).

Les stations disponibles sont représentées par des disques jaunes et rouges sur la carte.

Passer la souris dessus pour voir le nom de la station.

Cliquer dessus pour voir les observations et prévisions météorologiques.

Pour changer de carte: cliquez sur les boutons verts avec une croix noire pour zoomer, sur le bouton vert avec un tiret pour effectuer un zoom arrière, ou sur les flèches vertes pour les cartes adjacentes.


METAR-TAF: